sensor_id;sensor_type;location;lat;lon;timestamp;temperature;humidity
48728;DHT22;34527;45.618;5.130;2023-01-28T00:02:20;0.50;99.90
48728;DHT22;34527;45.618;5.130;2023-01-28T00:04:46;0.60;99.90
48728;DHT22;34527;45.618;5.130;2023-01-28T00:07:11;0.60;99.90
48728;DHT22;34527;45.618;5.130;2023-01-28T00:09:37;0.60;99.90
48728;DHT22;34527;45.618;5.130;2023-01-28T00:12:04;0.60;99.90
48728;DHT22;34527;45.618;5.130;2023-01-28T00:14:30;0.60;99.90
48728;DHT22;34527;45.618;5.130;2023-01-28T00:16:55;0.60;99.90
48728;DHT22;34527;45.618;5.130;2023-01-28T00:19:21;0.60;99.90
48728;DHT22;34527;45.618;5.130;2023-01-28T00:21:47;0.70;99.90
48728;DHT22;34527;45.618;5.130;2023-01-28T00:24:13;0.70;99.90
48728;DHT22;34527;45.618;5.130;2023-01-28T00:26:38;0.70;99.90
48728;DHT22;34527;45.618;5.130;2023-01-28T00:29:04;0.70;99.90
48728;DHT22;34527;45.618;5.130;2023-01-28T00:31:31;0.70;99.90
48728;DHT22;34527;45.618;5.130;2023-01-28T00:33:56;0.70;99.90
48728;DHT22;34527;45.618;5.130;2023-01-28T00:36:24;0.70;99.90
48728;DHT22;34527;45.618;5.130;2023-01-28T00:38:57;0.70;99.90
48728;DHT22;34527;45.618;5.130;2023-01-28T00:41:27;0.70;99.90
48728;DHT22;34527;45.618;5.130;2023-01-28T00:43:53;0.70;99.90
48728;DHT22;34527;45.618;5.130;2023-01-28T00:46:20;0.70;99.90
48728;DHT22;34527;45.618;5.130;2023-01-28T00:48:46;0.70;99.90
48728;DHT22;34527;45.618;5.130;2023-01-28T00:51:13;0.70;99.90
48728;DHT22;34527;45.618;5.130;2023-01-28T00:53:39;0.70;99.90
48728;DHT22;34527;45.618;5.130;2023-01-28T00:56:07;0.70;99.90
48728;DHT22;34527;45.618;5.130;2023-01-28T00:58:33;0.70;99.90
48728;DHT22;34527;45.618;5.130;2023-01-28T01:01:14;0.70;99.90
48728;DHT22;34527;45.618;5.130;2023-01-28T01:03:40;0.80;99.90
48728;DHT22;34527;45.618;5.130;2023-01-28T01:06:07;0.70;99.90
48728;DHT22;34527;45.618;5.130;2023-01-28T01:08:33;0.70;99.90
48728;DHT22;34527;45.618;5.130;2023-01-28T01:11:01;0.80;99.90
48728;DHT22;34527;45.618;5.130;2023-01-28T01:13:26;0.70;99.90
48728;DHT22;34527;45.618;5.130;2023-01-28T01:16:28;0.70;99.90
48728;DHT22;34527;45.618;5.130;2023-01-28T01:18:55;0.70;99.90
48728;DHT22;34527;45.618;5.130;2023-01-28T01:21:23;0.70;99.90
48728;DHT22;34527;45.618;5.130;2023-01-28T01:23:50;0.70;99.90
48728;DHT22;34527;45.618;5.130;2023-01-28T01:26:15;0.70;99.90
48728;DHT22;34527;45.618;5.130;2023-01-28T01:28:42;0.70;99.90
48728;DHT22;34527;45.618;5.130;2023-01-28T01:31:11;0.70;99.90
48728;DHT22;34527;45.618;5.130;2023-01-28T01:33:39;0.70;99.90
48728;DHT22;34527;45.618;5.130;2023-01-28T01:36:06;0.60;99.90
48728;DHT22;34527;45.618;5.130;2023-01-28T01:38:31;0.70;99.90
48728;DHT22;34527;45.618;5.130;2023-01-28T01:40:58;0.70;99.90
48728;DHT22;34527;45.618;5.130;2023-01-28T01:43:24;0.70;99.90
48728;DHT22;34527;45.618;5.130;2023-01-28T01:45:56;0.70;99.90
48728;DHT22;34527;45.618;5.130;2023-01-28T01:48:28;0.70;99.90
48728;DHT22;34527;45.618;5.130;2023-01-28T01:51:00;0.70;99.90
48728;DHT22;34527;45.618;5.130;2023-01-28T01:53:29;0.70;99.90
48728;DHT22;34527;45.618;5.130;2023-01-28T01:55:58;0.70;99.90
48728;DHT22;34527;45.618;5.130;2023-01-28T01:58:28;0.70;99.90
48728;DHT22;34527;45.618;5.130;2023-01-28T02:00:54;0.70;99.90
48728;DHT22;34527;45.618;5.130;2023-01-28T02:03:25;0.60;99.90
48728;DHT22;34527;45.618;5.130;2023-01-28T02:05:53;0.60;99.90
48728;DHT22;34527;45.618;5.130;2023-01-28T02:08:18;0.60;99.90
48728;DHT22;34527;45.618;5.130;2023-01-28T02:10:59;0.50;99.90
48728;DHT22;34527;45.618;5.130;2023-01-28T02:13:29;0.50;99.90
48728;DHT22;34527;45.618;5.130;2023-01-28T02:15:57;0.50;99.90
48728;DHT22;34527;45.618;5.130;2023-01-28T02:18:23;0.50;99.90
48728;DHT22;34527;45.618;5.130;2023-01-28T02:26:24;0.40;99.90
48728;DHT22;34527;45.618;5.130;2023-01-28T02:37:05;0.30;99.90
48728;DHT22;34527;45.618;5.130;2023-01-28T02:39:37;0.30;99.90
48728;DHT22;34527;45.618;5.130;2023-01-28T02:42:16;0.30;99.90
48728;DHT22;34527;45.618;5.130;2023-01-28T02:44:42;0.30;99.90
48728;DHT22;34527;45.618;5.130;2023-01-28T02:47:12;0.40;99.90
48728;DHT22;34527;45.618;5.130;2023-01-28T02:50:00;0.40;99.90
48728;DHT22;34527;45.618;5.130;2023-01-28T02:58:17;0.30;99.90
48728;DHT22;34527;45.618;5.130;2023-01-28T03:00:52;0.30;99.90
48728;DHT22;34527;45.618;5.130;2023-01-28T03:03:36;0.30;99.90
48728;DHT22;34527;45.618;5.130;2023-01-28T03:06:08;0.40;99.90
48728;DHT22;34527;45.618;5.130;2023-01-28T03:08:49;0.30;99.90
48728;DHT22;34527;45.618;5.130;2023-01-28T03:11:41;0.30;99.90
48728;DHT22;34527;45.618;5.130;2023-01-28T03:14:27;0.30;99.90
48728;DHT22;34527;45.618;5.130;2023-01-28T03:17:23;0.20;99.90
48728;DHT22;34527;45.618;5.130;2023-01-28T03:20:08;0.20;99.90
48728;DHT22;34527;45.618;5.130;2023-01-28T03:22:54;0.20;99.90
48728;DHT22;34527;45.618;5.130;2023-01-28T03:25:42;0.20;99.90
48728;DHT22;34527;45.618;5.130;2023-01-28T03:28:28;0.10;99.90
48728;DHT22;34527;45.618;5.130;2023-01-28T03:31:16;0.10;99.90
48728;DHT22;34527;45.618;5.130;2023-01-28T03:34:03;0.10;99.90
48728;DHT22;34527;45.618;5.130;2023-01-28T03:36:49;0.10;99.90
48728;DHT22;34527;45.618;5.130;2023-01-28T03:39:16;0.10;99.90
48728;DHT22;34527;45.618;5.130;2023-01-28T03:41:42;0.10;99.90
48728;DHT22;34527;45.618;5.130;2023-01-28T03:44:19;0.10;99.90
48728;DHT22;34527;45.618;5.130;2023-01-28T03:47:03;0.20;99.90
48728;DHT22;34527;45.618;5.130;2023-01-28T03:49:31;0.10;99.90
48728;DHT22;34527;45.618;5.130;2023-01-28T03:51:57;0.10;99.90
48728;DHT22;34527;45.618;5.130;2023-01-28T03:54:22;0.10;99.90
48728;DHT22;34527;45.618;5.130;2023-01-28T03:56:48;0.20;99.90
48728;DHT22;34527;45.618;5.130;2023-01-28T03:59:14;0.20;99.90
48728;DHT22;34527;45.618;5.130;2023-01-28T04:01:39;0.20;99.90
48728;DHT22;34527;45.618;5.130;2023-01-28T04:04:05;0.10;99.90
48728;DHT22;34527;45.618;5.130;2023-01-28T04:06:30;0.10;99.90
48728;DHT22;34527;45.618;5.130;2023-01-28T04:08:56;0.10;99.90
48728;DHT22;34527;45.618;5.130;2023-01-28T04:11:24;0.10;99.90
48728;DHT22;34527;45.618;5.130;2023-01-28T04:13:51;0.10;99.90
48728;DHT22;34527;45.618;5.130;2023-01-28T04:16:17;0.10;99.90
48728;DHT22;34527;45.618;5.130;2023-01-28T04:18:44;0.10;99.90
48728;DHT22;34527;45.618;5.130;2023-01-28T04:21:10;0.00;99.90
48728;DHT22;34527;45.618;5.130;2023-01-28T04:23:35;0.00;99.90
48728;DHT22;34527;45.618;5.130;2023-01-28T04:26:01;0.00;99.90
48728;DHT22;34527;45.618;5.130;2023-01-28T04:28:28;0.00;99.90
48728;DHT22;34527;45.618;5.130;2023-01-28T04:30:54;0.00;99.90
48728;DHT22;34527;45.618;5.130;2023-01-28T04:33:20;0.00;99.90
48728;DHT22;34527;45.618;5.130;2023-01-28T04:35:46;-0.10;99.90
48728;DHT22;34527;45.618;5.130;2023-01-28T04:38:12;-0.10;99.90
48728;DHT22;34527;45.618;5.130;2023-01-28T04:40:37;-0.10;99.90
48728;DHT22;34527;45.618;5.130;2023-01-28T04:43:03;-0.10;99.90
48728;DHT22;34527;45.618;5.130;2023-01-28T04:45:28;-0.10;99.90
48728;DHT22;34527;45.618;5.130;2023-01-28T04:47:55;-0.10;99.90
48728;DHT22;34527;45.618;5.130;2023-01-28T04:50:21;-0.10;99.90
48728;DHT22;34527;45.618;5.130;2023-01-28T04:52:46;-0.20;99.90
48728;DHT22;34527;45.618;5.130;2023-01-28T04:55:12;-0.20;99.90
48728;DHT22;34527;45.618;5.130;2023-01-28T04:57:37;-0.20;99.90
48728;DHT22;34527;45.618;5.130;2023-01-28T05:00:03;-0.20;99.90
48728;DHT22;34527;45.618;5.130;2023-01-28T05:02:30;-0.20;99.90
48728;DHT22;34527;45.618;5.130;2023-01-28T05:04:55;-0.20;99.90
48728;DHT22;34527;45.618;5.130;2023-01-28T05:07:21;-0.20;99.90
48728;DHT22;34527;45.618;5.130;2023-01-28T05:09:47;-0.30;99.90
48728;DHT22;34527;45.618;5.130;2023-01-28T05:12:12;-0.30;99.90
48728;DHT22;34527;45.618;5.130;2023-01-28T05:14:38;-0.30;99.90
48728;DHT22;34527;45.618;5.130;2023-01-28T05:17:04;-0.30;99.90
48728;DHT22;34527;45.618;5.130;2023-01-28T05:19:29;-0.30;99.90
48728;DHT22;34527;45.618;5.130;2023-01-28T05:21:55;-0.30;99.90
48728;DHT22;34527;45.618;5.130;2023-01-28T05:24:20;-0.40;99.90
48728;DHT22;34527;45.618;5.130;2023-01-28T05:26:46;-0.40;99.90
48728;DHT22;34527;45.618;5.130;2023-01-28T05:29:12;-0.40;99.90
48728;DHT22;34527;45.618;5.130;2023-01-28T05:31:37;-0.40;99.90
48728;DHT22;34527;45.618;5.130;2023-01-28T05:34:03;-0.50;99.90
48728;DHT22;34527;45.618;5.130;2023-01-28T05:36:28;-0.40;99.90
48728;DHT22;34527;45.618;5.130;2023-01-28T05:38:54;-0.50;99.90
48728;DHT22;34527;45.618;5.130;2023-01-28T05:41:20;-0.50;99.90
48728;DHT22;34527;45.618;5.130;2023-01-28T05:43:45;-0.40;99.90
48728;DHT22;34527;45.618;5.130;2023-01-28T05:46:11;-0.50;99.90
48728;DHT22;34527;45.618;5.130;2023-01-28T05:48:37;-0.50;99.90
48728;DHT22;34527;45.618;5.130;2023-01-28T05:51:02;-0.40;99.90
48728;DHT22;34527;45.618;5.130;2023-01-28T05:53:29;-0.50;99.90
48728;DHT22;34527;45.618;5.130;2023-01-28T05:55:55;-0.50;99.90
48728;DHT22;34527;45.618;5.130;2023-01-28T05:58:21;-0.50;99.90
48728;DHT22;34527;45.618;5.130;2023-01-28T06:00:47;-0.50;99.90
48728;DHT22;34527;45.618;5.130;2023-01-28T06:03:12;-0.50;99.90
48728;DHT22;34527;45.618;5.130;2023-01-28T06:05:38;-0.50;99.90
48728;DHT22;34527;45.618;5.130;2023-01-28T06:08:04;-0.50;99.90
48728;DHT22;34527;45.618;5.130;2023-01-28T06:10:30;-0.50;99.90
48728;DHT22;34527;45.618;5.130;2023-01-28T06:12:55;-0.40;99.90
48728;DHT22;34527;45.618;5.130;2023-01-28T06:15:21;-0.40;99.90
48728;DHT22;34527;45.618;5.130;2023-01-28T06:17:47;-0.40;99.90
48728;DHT22;34527;45.618;5.130;2023-01-28T06:20:12;-0.40;99.90
48728;DHT22;34527;45.618;5.130;2023-01-28T06:22:38;-0.40;99.90
48728;DHT22;34527;45.618;5.130;2023-01-28T06:25:04;-0.40;99.90
48728;DHT22;34527;45.618;5.130;2023-01-28T06:27:29;-0.40;99.90
48728;DHT22;34527;45.618;5.130;2023-01-28T06:29:55;-0.40;99.90
48728;DHT22;34527;45.618;5.130;2023-01-28T06:32:21;-0.40;99.90
48728;DHT22;34527;45.618;5.130;2023-01-28T06:34:46;-0.40;99.90
48728;DHT22;34527;45.618;5.130;2023-01-28T06:37:13;-0.40;99.90
48728;DHT22;34527;45.618;5.130;2023-01-28T06:39:38;-0.40;99.90
48728;DHT22;34527;45.618;5.130;2023-01-28T06:42:05;-0.40;99.90
48728;DHT22;34527;45.618;5.130;2023-01-28T06:44:30;-0.40;99.90
48728;DHT22;34527;45.618;5.130;2023-01-28T06:46:56;-0.40;99.90
48728;DHT22;34527;45.618;5.130;2023-01-28T06:49:21;-0.40;99.90
48728;DHT22;34527;45.618;5.130;2023-01-28T06:51:47;-0.40;99.90
48728;DHT22;34527;45.618;5.130;2023-01-28T06:54:13;-0.40;99.90
48728;DHT22;34527;45.618;5.130;2023-01-28T06:56:39;-0.40;99.90
48728;DHT22;34527;45.618;5.130;2023-01-28T06:59:04;-0.40;99.90
48728;DHT22;34527;45.618;5.130;2023-01-28T07:01:30;-0.40;99.90
48728;DHT22;34527;45.618;5.130;2023-01-28T07:03:56;-0.40;99.90
48728;DHT22;34527;45.618;5.130;2023-01-28T07:06:22;-0.40;99.90
48728;DHT22;34527;45.618;5.130;2023-01-28T07:08:47;-0.40;99.90
48728;DHT22;34527;45.618;5.130;2023-01-28T07:11:14;-0.40;99.90
48728;DHT22;34527;45.618;5.130;2023-01-28T07:13:39;-0.30;99.90
48728;DHT22;34527;45.618;5.130;2023-01-28T07:16:06;-0.30;99.90
48728;DHT22;34527;45.618;5.130;2023-01-28T07:18:31;-0.40;99.90
48728;DHT22;34527;45.618;5.130;2023-01-28T07:20:57;-0.40;99.90
48728;DHT22;34527;45.618;5.130;2023-01-28T07:23:23;-0.40;99.90
48728;DHT22;34527;45.618;5.130;2023-01-28T07:25:48;-0.40;99.90
48728;DHT22;34527;45.618;5.130;2023-01-28T07:28:14;-0.50;99.90
48728;DHT22;34527;45.618;5.130;2023-01-28T07:30:47;-0.50;99.90
48728;DHT22;34527;45.618;5.130;2023-01-28T07:33:12;-0.50;99.90
48728;DHT22;34527;45.618;5.130;2023-01-28T07:35:38;-0.50;99.90
48728;DHT22;34527;45.618;5.130;2023-01-28T07:38:03;-0.50;99.90
48728;DHT22;34527;45.618;5.130;2023-01-28T07:40:29;-0.50;99.90
48728;DHT22;34527;45.618;5.130;2023-01-28T07:42:55;-0.50;99.90
48728;DHT22;34527;45.618;5.130;2023-01-28T07:45:22;-0.50;99.90
48728;DHT22;34527;45.618;5.130;2023-01-28T07:47:59;-0.40;99.90
48728;DHT22;34527;45.618;5.130;2023-01-28T07:50:27;-0.40;99.90
48728;DHT22;34527;45.618;5.130;2023-01-28T07:52:56;-0.50;99.90
48728;DHT22;34527;45.618;5.130;2023-01-28T07:55:22;-0.40;99.90
48728;DHT22;34527;45.618;5.130;2023-01-28T07:57:55;-0.40;99.90
48728;DHT22;34527;45.618;5.130;2023-01-28T08:00:23;-0.40;99.90
48728;DHT22;34527;45.618;5.130;2023-01-28T08:02:49;-0.30;99.90
48728;DHT22;34527;45.618;5.130;2023-01-28T08:05:20;-0.30;99.90
48728;DHT22;34527;45.618;5.130;2023-01-28T08:07:47;-0.30;99.90
48728;DHT22;34527;45.618;5.130;2023-01-28T08:10:14;-0.30;99.90
48728;DHT22;34527;45.618;5.130;2023-01-28T08:12:41;-0.30;99.90
48728;DHT22;34527;45.618;5.130;2023-01-28T08:15:14;-0.30;99.90
48728;DHT22;34527;45.618;5.130;2023-01-28T08:17:40;-0.20;99.90
48728;DHT22;34527;45.618;5.130;2023-01-28T08:20:06;-0.20;99.90
48728;DHT22;34527;45.618;5.130;2023-01-28T08:22:32;-0.20;99.90
48728;DHT22;34527;45.618;5.130;2023-01-28T08:24:57;-0.10;99.90
48728;DHT22;34527;45.618;5.130;2023-01-28T08:27:23;-0.20;99.90
48728;DHT22;34527;45.618;5.130;2023-01-28T08:29:48;-0.10;99.90
48728;DHT22;34527;45.618;5.130;2023-01-28T08:32:14;-0.10;99.90
48728;DHT22;34527;45.618;5.130;2023-01-28T08:34:39;-0.10;99.90
48728;DHT22;34527;45.618;5.130;2023-01-28T08:37:05;-0.20;99.90
48728;DHT22;34527;45.618;5.130;2023-01-28T08:39:30;-0.10;99.90
48728;DHT22;34527;45.618;5.130;2023-01-28T08:41:56;-0.10;99.90
48728;DHT22;34527;45.618;5.130;2023-01-28T08:44:22;0.00;99.90
48728;DHT22;34527;45.618;5.130;2023-01-28T08:46:47;0.10;99.90
48728;DHT22;34527;45.618;5.130;2023-01-28T08:49:13;0.10;99.90
48728;DHT22;34527;45.618;5.130;2023-01-28T08:51:38;0.10;99.90
48728;DHT22;34527;45.618;5.130;2023-01-28T08:54:04;0.10;99.90
48728;DHT22;34527;45.618;5.130;2023-01-28T08:56:29;0.00;99.90
48728;DHT22;34527;45.618;5.130;2023-01-28T08:58:55;0.10;99.90
48728;DHT22;34527;45.618;5.130;2023-01-28T09:01:21;0.10;99.90
48728;DHT22;34527;45.618;5.130;2023-01-28T09:03:46;0.10;99.90
48728;DHT22;34527;45.618;5.130;2023-01-28T09:06:12;0.10;99.90
48728;DHT22;34527;45.618;5.130;2023-01-28T09:08:37;0.10;99.90
48728;DHT22;34527;45.618;5.130;2023-01-28T09:11:03;0.10;99.90
48728;DHT22;34527;45.618;5.130;2023-01-28T09:13:29;0.10;99.90
48728;DHT22;34527;45.618;5.130;2023-01-28T09:15:55;0.20;99.90
48728;DHT22;34527;45.618;5.130;2023-01-28T09:18:20;0.20;99.90
48728;DHT22;34527;45.618;5.130;2023-01-28T09:20:46;0.20;99.90
48728;DHT22;34527;45.618;5.130;2023-01-28T09:23:12;0.30;99.90
48728;DHT22;34527;45.618;5.130;2023-01-28T09:25:37;0.40;99.90
48728;DHT22;34527;45.618;5.130;2023-01-28T09:28:04;0.40;99.90
48728;DHT22;34527;45.618;5.130;2023-01-28T09:30:30;0.40;99.90
48728;DHT22;34527;45.618;5.130;2023-01-28T09:32:56;0.50;99.90
48728;DHT22;34527;45.618;5.130;2023-01-28T09:35:23;0.60;99.90
48728;DHT22;34527;45.618;5.130;2023-01-28T09:37:49;0.70;99.90
48728;DHT22;34527;45.618;5.130;2023-01-28T09:40:19;0.80;99.90
48728;DHT22;34527;45.618;5.130;2023-01-28T09:42:58;0.90;99.90
48728;DHT22;34527;45.618;5.130;2023-01-28T09:48:01;0.80;99.90
48728;DHT22;34527;45.618;5.130;2023-01-28T09:50:34;0.80;99.90
48728;DHT22;34527;45.618;5.130;2023-01-28T09:53:22;0.90;99.90
48728;DHT22;34527;45.618;5.130;2023-01-28T09:58:20;0.90;99.90
48728;DHT22;34527;45.618;5.130;2023-01-28T10:03:48;1.00;99.90
48728;DHT22;34527;45.618;5.130;2023-01-28T10:06:25;1.00;99.90
48728;DHT22;34527;45.618;5.130;2023-01-28T10:09:17;1.00;99.90
48728;DHT22;34527;45.618;5.130;2023-01-28T10:14:43;0.90;99.90
48728;DHT22;34527;45.618;5.130;2023-01-28T10:17:16;0.90;99.90
48728;DHT22;34527;45.618;5.130;2023-01-28T10:19:47;0.90;99.90
48728;DHT22;34527;45.618;5.130;2023-01-28T10:22:22;0.90;99.90
48728;DHT22;34527;45.618;5.130;2023-01-28T10:24:53;0.90;99.90
48728;DHT22;34527;45.618;5.130;2023-01-28T10:27:22;0.90;99.90
48728;DHT22;34527;45.618;5.130;2023-01-28T10:29:49;1.00;99.90
48728;DHT22;34527;45.618;5.130;2023-01-28T10:32:31;1.00;99.90
48728;DHT22;34527;45.618;5.130;2023-01-28T10:34:59;1.10;99.90
48728;DHT22;34527;45.618;5.130;2023-01-28T10:37:27;1.10;99.90
48728;DHT22;34527;45.618;5.130;2023-01-28T10:39:57;1.10;99.90
48728;DHT22;34527;45.618;5.130;2023-01-28T10:42:31;1.10;99.90
48728;DHT22;34527;45.618;5.130;2023-01-28T10:45:19;1.20;99.90
48728;DHT22;34527;45.618;5.130;2023-01-28T10:48:03;1.10;99.90
48728;DHT22;34527;45.618;5.130;2023-01-28T10:50:31;1.10;99.90
48728;DHT22;34527;45.618;5.130;2023-01-28T10:53:01;1.20;99.90
48728;DHT22;34527;45.618;5.130;2023-01-28T10:55:48;1.20;99.90
48728;DHT22;34527;45.618;5.130;2023-01-28T10:58:20;1.30;99.90
48728;DHT22;34527;45.618;5.130;2023-01-28T11:01:02;1.30;99.90
48728;DHT22;34527;45.618;5.130;2023-01-28T11:03:29;1.40;99.90
48728;DHT22;34527;45.618;5.130;2023-01-28T11:06:00;1.40;99.90
48728;DHT22;34527;45.618;5.130;2023-01-28T11:08:27;1.40;99.90
48728;DHT22;34527;45.618;5.130;2023-01-28T11:10:54;1.40;99.90
48728;DHT22;34527;45.618;5.130;2023-01-28T11:13:26;1.50;99.90
48728;DHT22;34527;45.618;5.130;2023-01-28T11:16:02;1.50;99.90
48728;DHT22;34527;45.618;5.130;2023-01-28T11:18:39;1.60;99.90
48728;DHT22;34527;45.618;5.130;2023-01-28T11:21:20;1.60;99.90
48728;DHT22;34527;45.618;5.130;2023-01-28T11:23:53;1.70;99.90
48728;DHT22;34527;45.618;5.130;2023-01-28T11:26:42;1.70;99.90
48728;DHT22;34527;45.618;5.130;2023-01-28T11:29:44;1.70;99.90
48728;DHT22;34527;45.618;5.130;2023-01-28T11:32:20;1.70;99.90
48728;DHT22;34527;45.618;5.130;2023-01-28T11:34:51;1.80;99.90
48728;DHT22;34527;45.618;5.130;2023-01-28T11:37:20;1.80;99.90
48728;DHT22;34527;45.618;5.130;2023-01-28T11:39:47;1.90;99.90
48728;DHT22;34527;45.618;5.130;2023-01-28T11:42:20;1.90;99.90
48728;DHT22;34527;45.618;5.130;2023-01-28T11:44:47;1.90;99.90
48728;DHT22;34527;45.618;5.130;2023-01-28T11:50:04;1.90;99.90
48728;DHT22;34527;45.618;5.130;2023-01-28T11:53:13;1.90;99.90
48728;DHT22;34527;45.618;5.130;2023-01-28T11:58:56;2.00;99.90
48728;DHT22;34527;45.618;5.130;2023-01-28T12:04:32;2.10;99.90
48728;DHT22;34527;45.618;5.130;2023-01-28T12:07:44;2.10;99.90
48728;DHT22;34527;45.618;5.130;2023-01-28T12:28:43;2.30;99.90
48728;DHT22;34527;45.618;5.130;2023-01-28T12:31:00;2.20;99.90
48728;DHT22;34527;45.618;5.130;2023-01-28T12:36:28;2.30;99.90
48728;DHT22;34527;45.618;5.130;2023-01-28T12:39:19;2.20;99.90
48728;DHT22;34527;45.618;5.130;2023-01-28T12:42:02;2.20;99.90
48728;DHT22;34527;45.618;5.130;2023-01-28T12:44:33;2.30;99.90
48728;DHT22;34527;45.618;5.130;2023-01-28T12:47:07;2.30;99.90
48728;DHT22;34527;45.618;5.130;2023-01-28T12:49:39;2.30;99.90
48728;DHT22;34527;45.618;5.130;2023-01-28T12:52:28;2.30;99.90
48728;DHT22;34527;45.618;5.130;2023-01-28T12:57:26;2.30;99.90
48728;DHT22;34527;45.618;5.130;2023-01-28T13:02:55;2.30;99.90
48728;DHT22;34527;45.618;5.130;2023-01-28T13:05:26;2.40;99.90
48728;DHT22;34527;45.618;5.130;2023-01-28T13:08:02;2.40;99.90
48728;DHT22;34527;45.618;5.130;2023-01-28T13:11:02;2.40;99.90
48728;DHT22;34527;45.618;5.130;2023-01-28T13:13:38;2.40;99.90
48728;DHT22;34527;45.618;5.130;2023-01-28T13:16:08;2.50;99.90
48728;DHT22;34527;45.618;5.130;2023-01-28T13:18:43;2.40;99.90
48728;DHT22;34527;45.618;5.130;2023-01-28T13:21:33;2.40;99.90
48728;DHT22;34527;45.618;5.130;2023-01-28T13:26:45;2.50;99.90
48728;DHT22;34527;45.618;5.130;2023-01-28T13:31:45;2.50;99.90
48728;DHT22;34527;45.618;5.130;2023-01-28T13:37:01;2.50;99.90
48728;DHT22;34527;45.618;5.130;2023-01-28T13:39:28;2.50;99.90
48728;DHT22;34527;45.618;5.130;2023-01-28T13:42:06;2.50;99.90
48728;DHT22;34527;45.618;5.130;2023-01-28T13:44:35;2.50;99.90
48728;DHT22;34527;45.618;5.130;2023-01-28T13:49:40;2.60;99.90
48728;DHT22;34527;45.618;5.130;2023-01-28T13:54:51;2.60;99.90
48728;DHT22;34527;45.618;5.130;2023-01-28T14:03:33;2.70;99.90
48728;DHT22;34527;45.618;5.130;2023-01-28T14:19:45;2.70;99.90
48728;DHT22;34527;45.618;5.130;2023-01-28T14:22:16;2.70;99.90
48728;DHT22;34527;45.618;5.130;2023-01-28T14:24:43;2.70;99.90
48728;DHT22;34527;45.618;5.130;2023-01-28T14:32:11;2.70;99.90
48728;DHT22;34527;45.618;5.130;2023-01-28T14:34:38;2.70;99.90
48728;DHT22;34527;45.618;5.130;2023-01-28T14:37:06;2.70;99.90
48728;DHT22;34527;45.618;5.130;2023-01-28T14:39:56;2.70;99.90
48728;DHT22;34527;45.618;5.130;2023-01-28T14:42:25;2.70;99.90
48728;DHT22;34527;45.618;5.130;2023-01-28T14:45:11;2.70;99.90
48728;DHT22;34527;45.618;5.130;2023-01-28T14:48:13;2.70;99.90
48728;DHT22;34527;45.618;5.130;2023-01-28T14:54:09;2.70;99.90
48728;DHT22;34527;45.618;5.130;2023-01-28T14:59:53;2.70;99.90
48728;DHT22;34527;45.618;5.130;2023-01-28T15:02:22;2.70;99.90
48728;DHT22;34527;45.618;5.130;2023-01-28T15:04:49;2.70;99.90
48728;DHT22;34527;45.618;5.130;2023-01-28T15:07:23;2.70;99.90
48728;DHT22;34527;45.618;5.130;2023-01-28T15:10:03;2.70;99.90
48728;DHT22;34527;45.618;5.130;2023-01-28T15:12:33;2.70;99.90
48728;DHT22;34527;45.618;5.130;2023-01-28T15:15:10;2.60;99.90
48728;DHT22;34527;45.618;5.130;2023-01-28T15:17:36;2.70;99.90
48728;DHT22;34527;45.618;5.130;2023-01-28T15:20:02;2.60;99.90
48728;DHT22;34527;45.618;5.130;2023-01-28T15:22:31;2.60;99.90
48728;DHT22;34527;45.618;5.130;2023-01-28T15:24:57;2.60;99.90
48728;DHT22;34527;45.618;5.130;2023-01-28T15:27:27;2.60;99.90
48728;DHT22;34527;45.618;5.130;2023-01-28T15:29:56;2.60;99.90
48728;DHT22;34527;45.618;5.130;2023-01-28T15:32:28;2.60;99.90
48728;DHT22;34527;45.618;5.130;2023-01-28T15:34:55;2.60;99.90
48728;DHT22;34527;45.618;5.130;2023-01-28T15:37:23;2.60;99.90
48728;DHT22;34527;45.618;5.130;2023-01-28T15:39:59;2.60;99.90
48728;DHT22;34527;45.618;5.130;2023-01-28T15:42:25;2.60;99.90
48728;DHT22;34527;45.618;5.130;2023-01-28T15:44:54;2.60;99.90
48728;DHT22;34527;45.618;5.130;2023-01-28T15:47:23;2.70;99.90
48728;DHT22;34527;45.618;5.130;2023-01-28T15:49:55;2.60;99.90
48728;DHT22;34527;45.618;5.130;2023-01-28T15:52:31;2.60;99.90
48728;DHT22;34527;45.618;5.130;2023-01-28T15:54:58;2.60;99.90
48728;DHT22;34527;45.618;5.130;2023-01-28T15:57:32;2.60;99.90
48728;DHT22;34527;45.618;5.130;2023-01-28T16:02:44;2.60;99.90
48728;DHT22;34527;45.618;5.130;2023-01-28T16:05:32;2.60;99.90
48728;DHT22;34527;45.618;5.130;2023-01-28T16:08:25;2.60;99.90
48728;DHT22;34527;45.618;5.130;2023-01-28T16:10:53;2.60;99.90
48728;DHT22;34527;45.618;5.130;2023-01-28T16:13:21;2.60;99.90
48728;DHT22;34527;45.618;5.130;2023-01-28T16:15:51;2.60;99.90
48728;DHT22;34527;45.618;5.130;2023-01-28T16:20:51;2.60;99.90
48728;DHT22;34527;45.618;5.130;2023-01-28T16:23:23;2.60;99.90
48728;DHT22;34527;45.618;5.130;2023-01-28T16:26:04;2.60;99.90
48728;DHT22;34527;45.618;5.130;2023-01-28T16:28:30;2.60;99.90
48728;DHT22;34527;45.618;5.130;2023-01-28T16:31:00;2.60;99.90
48728;DHT22;34527;45.618;5.130;2023-01-28T16:33:26;2.60;99.90
48728;DHT22;34527;45.618;5.130;2023-01-28T16:35:51;2.60;99.90
48728;DHT22;34527;45.618;5.130;2023-01-28T16:38:17;2.60;99.90
48728;DHT22;34527;45.618;5.130;2023-01-28T16:40:44;2.60;99.90
48728;DHT22;34527;45.618;5.130;2023-01-28T16:43:12;2.60;99.90
48728;DHT22;34527;45.618;5.130;2023-01-28T16:45:37;2.60;99.90
48728;DHT22;34527;45.618;5.130;2023-01-28T16:48:03;2.60;99.90
48728;DHT22;34527;45.618;5.130;2023-01-28T16:50:30;2.60;99.90
48728;DHT22;34527;45.618;5.130;2023-01-28T16:52:57;2.60;99.90
48728;DHT22;34527;45.618;5.130;2023-01-28T16:55:23;2.60;99.90
48728;DHT22;34527;45.618;5.130;2023-01-28T16:57:52;2.60;99.90
48728;DHT22;34527;45.618;5.130;2023-01-28T17:02:45;2.60;99.90
48728;DHT22;34527;45.618;5.130;2023-01-28T17:05:11;2.60;99.90
48728;DHT22;34527;45.618;5.130;2023-01-28T17:07:37;2.60;99.90
48728;DHT22;34527;45.618;5.130;2023-01-28T17:10:03;2.60;99.90
48728;DHT22;34527;45.618;5.130;2023-01-28T17:12:29;2.60;99.90
48728;DHT22;34527;45.618;5.130;2023-01-28T17:14:55;2.60;99.90
48728;DHT22;34527;45.618;5.130;2023-01-28T17:17:20;2.60;99.90
48728;DHT22;34527;45.618;5.130;2023-01-28T17:19:46;2.60;99.90
48728;DHT22;34527;45.618;5.130;2023-01-28T17:22:12;2.60;99.90
48728;DHT22;34527;45.618;5.130;2023-01-28T17:24:37;2.60;99.90
48728;DHT22;34527;45.618;5.130;2023-01-28T17:27:03;2.60;99.90
48728;DHT22;34527;45.618;5.130;2023-01-28T17:29:30;2.60;99.90
48728;DHT22;34527;45.618;5.130;2023-01-28T17:31:55;2.60;99.90
48728;DHT22;34527;45.618;5.130;2023-01-28T17:34:21;2.60;99.90
48728;DHT22;34527;45.618;5.130;2023-01-28T17:36:47;2.50;99.90
48728;DHT22;34527;45.618;5.130;2023-01-28T17:39:12;2.60;99.90
48728;DHT22;34527;45.618;5.130;2023-01-28T17:41:38;2.50;99.90
48728;DHT22;34527;45.618;5.130;2023-01-28T17:44:04;2.50;99.90
48728;DHT22;34527;45.618;5.130;2023-01-28T17:46:30;2.50;99.90
48728;DHT22;34527;45.618;5.130;2023-01-28T17:48:56;2.50;99.90
48728;DHT22;34527;45.618;5.130;2023-01-28T17:51:21;2.50;99.90
48728;DHT22;34527;45.618;5.130;2023-01-28T17:53:51;2.50;99.90
48728;DHT22;34527;45.618;5.130;2023-01-28T17:56:19;2.50;99.90
48728;DHT22;34527;45.618;5.130;2023-01-28T17:58:52;2.50;99.90